createdAt,value
2022-11-22T00:00:48.307Z,60.37
2022-11-22T00:03:20.260Z,57.63
2022-11-22T00:05:48.239Z,55.00
2022-11-22T00:08:15.792Z,52.77
2022-11-22T00:10:43.929Z,54.53
2022-11-22T00:13:11.517Z,58.43
2022-11-22T00:15:39.615Z,52.00
2022-11-22T00:18:07.189Z,52.57
2022-11-22T00:20:36.442Z,54.20
2022-11-22T00:23:04.518Z,57.97
2022-11-22T00:25:33.074Z,52.97
2022-11-22T00:28:00.682Z,54.57
2022-11-22T00:30:28.828Z,52.07
2022-11-22T00:32:56.921Z,57.20
2022-11-22T00:35:25.150Z,60.93
2022-11-22T00:37:52.948Z,59.13
2022-11-22T00:40:21.450Z,45.03
2022-11-22T00:42:49.112Z,49.97
2022-11-22T00:45:18.557Z,49.13
2022-11-22T00:47:46.303Z,54.17
2022-11-22T00:50:14.373Z,48.83
2022-11-22T00:52:42.080Z,53.30
2022-11-22T00:55:10.292Z,49.30
2022-11-22T00:57:38.281Z,50.50
2022-11-22T01:00:07.522Z,56.47
2022-11-22T01:02:35.855Z,50.97
2022-11-22T01:05:04.221Z,55.47
2022-11-22T01:07:32.482Z,57.27
2022-11-22T01:10:00.563Z,44.87
2022-11-22T01:12:28.199Z,51.47
2022-11-22T01:14:56.473Z,53.07
2022-11-22T01:17:24.160Z,62.23
2022-11-22T01:19:52.300Z,61.93
2022-11-22T01:22:20.942Z,50.03
2022-11-22T01:24:49.081Z,60.03
2022-11-22T01:27:17.001Z,56.93
2022-11-22T01:29:45.952Z,49.33
2022-11-22T01:32:13.605Z,49.97
2022-11-22T01:34:41.625Z,49.27
2022-11-22T01:37:09.743Z,62.17
2022-11-22T01:39:37.774Z,53.93
2022-11-22T01:42:05.215Z,44.13
2022-11-22T01:44:33.639Z,49.13
2022-11-22T01:47:27.466Z,46.77
2022-11-22T01:50:06.760Z,49.10
2022-11-22T01:52:35.000Z,52.20
2022-11-22T01:55:12.716Z,55.03
2022-11-22T01:57:42.184Z,49.57
2022-11-22T02:00:14.194Z,46.23
2022-11-22T02:02:41.695Z,49.77
2022-11-22T02:05:15.234Z,53.27
2022-11-22T02:07:55.359Z,48.47
2022-11-22T02:10:25.478Z,51.47
2022-11-22T02:12:54.475Z,48.30
2022-11-22T02:15:22.087Z,52.00
2022-11-22T02:17:49.224Z,48.10
2022-11-22T02:20:19.401Z,44.77
2022-11-22T02:22:52.762Z,45.10
2022-11-22T02:25:22.979Z,50.13
2022-11-22T02:27:50.895Z,51.07
2022-11-22T02:30:19.326Z,54.30
2022-11-22T02:32:46.523Z,46.73
2022-11-22T02:35:24.822Z,50.23
2022-11-22T02:37:58.116Z,60.17
2022-11-22T02:40:28.045Z,53.40
2022-11-22T02:43:05.280Z,50.13
2022-11-22T02:45:33.639Z,57.63
2022-11-22T02:48:06.996Z,55.07
2022-11-22T02:50:37.165Z,50.63
2022-11-22T02:53:06.648Z,47.00
2022-11-22T02:55:34.612Z,53.83
2022-11-22T02:58:01.757Z,52.40
2022-11-22T03:00:29.188Z,53.00
2022-11-22T03:02:56.298Z,53.40
2022-11-22T03:05:23.933Z,55.20
2022-11-22T03:07:51.533Z,52.03
2022-11-22T03:10:19.147Z,51.40
2022-11-22T03:12:46.362Z,53.13
2022-11-22T03:15:13.872Z,63.67
2022-11-22T03:17:40.974Z,53.10
2022-11-22T03:20:09.046Z,70.03
2022-11-22T03:22:36.562Z,54.97
2022-11-22T03:25:04.442Z,61.37
2022-11-22T03:27:31.773Z,53.27
2022-11-22T03:30:01.740Z,51.33
2022-11-22T03:32:28.939Z,58.93
2022-11-22T03:34:56.972Z,57.47
2022-11-22T03:37:24.262Z,53.33
2022-11-22T03:39:51.803Z,53.73
2022-11-22T03:42:21.915Z,58.73
2022-11-22T03:44:50.080Z,49.20
2022-11-22T03:47:17.340Z,55.43
2022-11-22T03:49:44.863Z,52.60
2022-11-22T03:52:12.187Z,51.90
2022-11-22T03:54:39.721Z,56.13
2022-11-22T03:57:07.669Z,52.70
2022-11-22T03:59:35.197Z,54.10
2022-11-22T04:02:02.329Z,51.10
2022-11-22T04:04:31.105Z,55.07
2022-11-22T04:06:58.256Z,54.47
2022-11-22T04:09:26.340Z,59.77
2022-11-22T04:11:56.437Z,58.30
2022-11-22T04:14:42.462Z,60.33
2022-11-22T04:17:13.731Z,65.63
2022-11-22T04:20:03.839Z,55.90
2022-11-22T04:22:31.146Z,56.70
2022-11-22T04:25:14.105Z,67.83
2022-11-22T04:27:41.287Z,53.87
2022-11-22T04:30:08.991Z,63.10
2022-11-22T04:32:47.882Z,61.40
2022-11-22T04:35:18.611Z,65.27
2022-11-22T04:37:53.236Z,63.70
2022-11-22T04:40:20.631Z,61.73
2022-11-22T04:43:06.181Z,61.90
2022-11-22T04:45:33.799Z,61.13
2022-11-22T04:48:01.009Z,56.10
2022-11-22T04:50:49.452Z,60.87
2022-11-22T04:53:18.082Z,64.83
2022-11-22T04:55:47.905Z,76.67
2022-11-22T04:58:15.653Z,70.73
2022-11-22T05:00:43.353Z,77.37
2022-11-22T05:03:10.883Z,74.17
2022-11-22T05:05:40.615Z,66.77
2022-11-22T05:08:08.393Z,70.07
2022-11-22T05:10:55.429Z,68.03
2022-11-22T05:13:23.916Z,69.43
2022-11-22T05:15:51.548Z,91.20
2022-11-22T05:18:22.936Z,76.77
2022-11-22T05:20:50.965Z,70.63
2022-11-22T05:23:37.447Z,68.57
2022-11-22T05:26:05.508Z,81.13
2022-11-22T05:28:34.877Z,84.40
2022-11-22T05:31:14.426Z,63.23
2022-11-22T05:33:43.693Z,79.73
2022-11-22T05:36:12.521Z,91.17
2022-11-22T05:38:39.898Z,95.80
2022-11-22T05:41:09.925Z,83.27
2022-11-22T05:43:37.952Z,82.70
2022-11-22T05:46:13.229Z,79.57
2022-11-22T05:48:42.748Z,89.43
2022-11-22T05:51:16.138Z,73.53
2022-11-22T05:53:44.506Z,78.80
2022-11-22T05:56:27.944Z,95.50
2022-11-22T05:58:55.817Z,93.57
2022-11-22T06:01:25.006Z,86.30
2022-11-22T06:03:52.551Z,87.40
2022-11-22T06:06:20.706Z,83.43
2022-11-22T06:08:48.837Z,80.60
2022-11-22T06:11:22.430Z,81.53
2022-11-22T06:13:55.188Z,96.83
2022-11-22T06:16:23.879Z,88.43
2022-11-22T06:18:51.653Z,97.97
2022-11-22T06:21:23.805Z,85.80
2022-11-22T06:23:55.273Z,89.50
2022-11-22T06:26:24.794Z,93.57
2022-11-22T06:28:52.065Z,84.87
2022-11-22T06:31:22.457Z,80.03
2022-11-22T06:33:51.303Z,94.43
2022-11-22T06:36:25.365Z,96.60
2022-11-22T06:38:53.149Z,99.20
2022-11-22T06:41:31.253Z,97.87
2022-11-22T06:44:00.899Z,97.50
2022-11-22T06:46:28.834Z,90.00
2022-11-22T06:48:56.067Z,82.90
2022-11-22T06:51:28.846Z,78.93
2022-11-22T06:53:59.501Z,91.47
2022-11-22T06:56:46.895Z,89.90
2022-11-22T06:59:14.118Z,88.80
2022-11-22T07:01:41.944Z,98.47
2022-11-22T07:04:10.704Z,88.43
2022-11-22T07:06:39.585Z,103.87
2022-11-22T07:09:09.556Z,96.70
2022-11-22T07:11:38.217Z,95.27
2022-11-22T07:14:08.933Z,94.00
2022-11-22T07:16:38.845Z,102.70
2022-11-22T07:19:06.945Z,109.13
2022-11-22T07:21:35.591Z,79.83
2022-11-22T07:24:05.178Z,88.40
2022-11-22T07:26:32.836Z,99.07
2022-11-22T07:29:00.107Z,109.67
2022-11-22T07:31:28.475Z,107.40
2022-11-22T07:33:57.852Z,87.70
2022-11-22T07:36:28.831Z,95.53
2022-11-22T07:38:56.728Z,91.97
2022-11-22T07:41:25.076Z,93.80
2022-11-22T07:43:53.492Z,96.83
2022-11-22T07:46:30.103Z,87.30
2022-11-22T07:49:02.693Z,92.57
2022-11-22T07:51:31.213Z,84.70
2022-11-22T07:53:59.009Z,110.80
2022-11-22T07:56:26.921Z,97.30
2022-11-22T07:58:56.981Z,98.83
2022-11-22T08:01:24.967Z,97.00
2022-11-22T08:03:52.392Z,97.57
2022-11-22T08:06:20.077Z,100.53
2022-11-22T08:08:47.299Z,120.43
2022-11-22T08:11:14.980Z,110.93
2022-11-22T08:13:42.879Z,101.40
2022-11-22T08:16:15.761Z,97.43
2022-11-22T08:18:48.202Z,97.43
2022-11-22T08:21:17.975Z,98.70
2022-11-22T08:23:46.325Z,92.10
2022-11-22T08:26:16.694Z,104.83
2022-11-22T08:28:44.775Z,93.53
2022-11-22T08:31:15.405Z,102.10
2022-11-22T08:33:51.539Z,102.67
2022-11-22T08:36:19.458Z,109.97
2022-11-22T08:38:47.203Z,99.27
2022-11-22T08:41:15.387Z,117.67
2022-11-22T08:43:42.575Z,105.43
2022-11-22T08:46:10.892Z,99.03
2022-11-22T08:48:39.119Z,103.97
2022-11-22T08:51:10.519Z,103.33
2022-11-22T08:53:40.289Z,112.80
2022-11-22T08:56:10.999Z,95.17
2022-11-22T08:58:39.210Z,109.53
2022-11-22T09:01:16.281Z,106.23
2022-11-22T09:03:44.923Z,91.50
2022-11-22T09:09:30.100Z,98.23
2022-11-22T09:11:50.970Z,86.53
2022-11-22T09:14:18.143Z,99.30
2022-11-22T09:16:46.726Z,96.83
2022-11-22T09:19:14.172Z,96.67
2022-11-22T09:21:49.892Z,94.87
2022-11-22T09:24:30.427Z,100.77
2022-11-22T09:27:13.659Z,86.83
2022-11-22T09:29:41.805Z,96.70
2022-11-22T09:32:10.809Z,87.80
2022-11-22T09:34:38.180Z,94.93
2022-11-22T09:37:05.880Z,87.40
2022-11-22T09:39:33.144Z,84.93
2022-11-22T09:42:11.828Z,99.43
2022-11-22T09:44:44.738Z,97.13
2022-11-22T09:47:30.254Z,77.80
2022-11-22T09:50:23.246Z,87.90
2022-11-22T09:52:59.616Z,84.37
2022-11-22T09:55:40.867Z,93.23
2022-11-22T09:58:33.516Z,74.70
2022-11-22T10:01:13.235Z,94.60
2022-11-22T10:04:16.384Z,84.90
2022-11-22T10:06:48.871Z,93.07
2022-11-22T10:09:30.856Z,94.23
2022-11-22T10:12:15.926Z,89.53
2022-11-22T10:15:09.421Z,93.50
2022-11-22T10:18:06.688Z,98.57
2022-11-22T10:20:47.448Z,89.27
2022-11-22T10:23:24.812Z,101.07
2022-11-22T10:26:09.995Z,90.03
2022-11-22T10:29:16.112Z,86.20
2022-11-22T10:32:19.097Z,84.13
2022-11-22T10:35:20.783Z,88.97
2022-11-22T10:38:19.428Z,75.47
2022-11-22T10:41:03.795Z,70.37
2022-11-22T10:44:18.228Z,72.70
2022-11-22T10:46:57.839Z,77.17
2022-11-22T10:49:40.680Z,78.03
2022-11-22T10:52:28.641Z,70.40
2022-11-22T10:55:12.964Z,72.57
2022-11-22T10:58:27.273Z,68.43
2022-11-22T11:01:27.408Z,76.13
2022-11-22T11:04:02.296Z,72.37
2022-11-22T11:10:10.738Z,62.20
2022-11-22T11:13:01.763Z,64.77
2022-11-22T11:15:55.772Z,63.43
2022-11-22T11:18:46.177Z,55.73
2022-11-22T11:21:16.615Z,59.90
2022-11-22T11:23:51.532Z,53.17
2022-11-22T11:26:27.284Z,68.13
2022-11-22T11:32:20.057Z,62.00
2022-11-22T11:35:08.869Z,51.87
2022-11-22T11:37:41.100Z,55.40
2022-11-22T11:40:38.929Z,51.93
2022-11-22T11:43:23.931Z,58.57
2022-11-22T11:45:58.969Z,50.93
2022-11-22T11:48:39.231Z,67.20
2022-11-22T12:05:28.763Z,51.67
2022-11-22T12:08:05.309Z,66.37
2022-11-22T12:11:00.211Z,59.43
2022-11-22T12:13:58.107Z,54.20
2022-11-22T12:16:50.069Z,64.43
2022-11-22T12:19:32.533Z,61.03
2022-11-22T12:22:52.730Z,51.67
2022-11-22T12:25:33.208Z,61.63
2022-11-22T12:28:19.006Z,60.83
2022-11-22T12:31:02.008Z,61.93
2022-11-22T12:33:47.295Z,61.50
2022-11-22T12:36:33.092Z,51.70
2022-11-22T12:39:07.433Z,57.97
2022-11-22T12:41:44.229Z,50.13
2022-11-22T12:44:24.049Z,52.13
2022-11-22T12:47:03.013Z,47.07
2022-11-22T12:49:56.733Z,49.33
2022-11-22T12:52:44.765Z,55.67
2022-11-22T12:55:29.331Z,53.27
2022-11-22T12:58:20.225Z,43.50
2022-11-22T13:01:08.110Z,51.50
2022-11-22T13:03:45.160Z,46.97
2022-11-22T13:06:17.382Z,42.43
2022-11-22T13:09:03.483Z,39.03
2022-11-22T13:11:49.799Z,31.80
2022-11-22T13:14:28.321Z,37.00
2022-11-22T13:16:55.729Z,36.97
2022-11-22T13:19:26.623Z,40.90
2022-11-22T13:22:12.953Z,31.67
2022-11-22T13:25:04.856Z,29.00
2022-11-22T13:27:35.994Z,42.17
2022-11-22T13:30:04.939Z,32.83
2022-11-22T13:32:34.718Z,33.40
2022-11-22T13:35:25.791Z,34.77
2022-11-22T13:37:56.658Z,40.13
2022-11-22T13:40:28.639Z,34.07
2022-11-22T13:43:19.617Z,33.97
2022-11-22T13:46:06.765Z,41.60
2022-11-22T13:48:54.708Z,41.50
2022-11-22T13:51:50.184Z,36.57
2022-11-22T13:54:35.995Z,41.83
2022-11-22T13:57:23.928Z,37.43
2022-11-22T14:00:12.614Z,41.77
2022-11-22T14:02:55.189Z,39.20
2022-11-22T14:05:39.678Z,36.90
2022-11-22T14:08:37.476Z,44.83
2022-11-22T14:11:29.981Z,42.07
2022-11-22T14:14:38.713Z,37.43
2022-11-22T14:17:38.583Z,39.50
2022-11-22T14:20:50.732Z,42.93
2022-11-22T15:59:43.177Z,45.90
2022-11-22T16:02:20.750Z,44.23
2022-11-22T16:06:07.201Z,47.23
2022-11-22T16:07:57.882Z,41.27
2022-11-22T16:10:39.254Z,38.23
2022-11-22T16:13:21.799Z,42.73
2022-11-22T16:16:11.627Z,40.13
2022-11-22T16:18:48.622Z,45.63
2022-11-22T16:21:16.142Z,40.97
2022-11-22T16:23:45.439Z,35.07
2022-11-22T16:26:36.832Z,38.07
2022-11-22T16:29:22.885Z,41.30
2022-11-22T16:31:50.456Z,44.17
2022-11-22T16:34:17.580Z,40.50
2022-11-22T16:36:46.114Z,45.77
2022-11-22T16:39:13.779Z,46.23
2022-11-22T16:41:41.319Z,51.53
2022-11-22T16:44:13.721Z,41.43
2022-11-22T16:46:41.469Z,47.47
2022-11-22T16:49:20.354Z,46.80
2022-11-22T16:51:50.235Z,44.87
2022-11-22T16:54:21.636Z,46.37
2022-11-22T16:56:49.339Z,45.77
2022-11-22T16:59:16.735Z,47.87
2022-11-22T17:01:44.605Z,43.20
2022-11-22T17:04:35.479Z,48.67
2022-11-22T17:07:14.720Z,40.23
2022-11-22T17:09:43.134Z,47.43
2022-11-22T17:12:34.136Z,49.37
2022-11-22T17:15:02.250Z,47.67
2022-11-22T17:17:29.897Z,63.30
2022-11-22T17:19:58.238Z,53.40
2022-11-22T17:22:26.559Z,50.53
2022-11-22T17:24:53.818Z,45.27
2022-11-22T17:27:21.236Z,49.70
2022-11-22T17:29:50.574Z,52.07
2022-11-22T17:32:18.868Z,56.20
2022-11-22T17:34:46.071Z,49.33
2022-11-22T17:37:14.028Z,50.10
2022-11-22T17:39:41.498Z,50.67
2022-11-22T17:42:09.041Z,66.17
2022-11-22T17:44:36.754Z,46.93
2022-11-22T17:47:04.189Z,59.27
2022-11-22T17:49:31.768Z,52.47
2022-11-22T17:51:59.316Z,51.50
2022-11-22T17:54:26.674Z,40.60
2022-11-22T17:56:54.084Z,48.17
2022-11-22T17:59:21.257Z,49.20
2022-11-22T18:01:49.540Z,49.30
2022-11-22T18:04:17.555Z,47.13
2022-11-22T18:06:47.618Z,50.13
2022-11-22T18:09:14.802Z,45.40
2022-11-22T18:11:44.685Z,54.20
2022-11-22T18:14:12.175Z,52.00
2022-11-22T18:16:43.822Z,59.07
2022-11-22T18:19:13.739Z,47.23
2022-11-22T18:21:41.298Z,48.43
2022-11-22T18:24:08.794Z,53.87
2022-11-22T18:26:40.598Z,59.20
2022-11-22T18:31:59.327Z,53.73
2022-11-22T18:34:27.874Z,52.47
2022-11-22T18:37:02.089Z,50.83
2022-11-22T18:39:37.953Z,48.93
2022-11-22T18:42:08.539Z,54.97
2022-11-22T18:44:35.767Z,50.07
2022-11-22T18:47:03.212Z,49.60
2022-11-22T18:49:31.027Z,52.40
2022-11-22T18:52:01.435Z,49.77
2022-11-22T18:54:29.253Z,53.97
2022-11-22T18:56:57.236Z,46.77
2022-11-22T18:59:25.108Z,55.40
2022-11-22T19:01:55.694Z,53.53
2022-11-22T19:04:23.048Z,43.90
2022-11-22T19:06:51.524Z,56.37
2022-11-22T19:09:19.792Z,51.63
2022-11-22T19:11:48.026Z,45.33
2022-11-22T19:14:15.500Z,45.47
2022-11-22T19:16:44.125Z,49.43
2022-11-22T19:19:13.471Z,47.13
2022-11-22T19:21:43.412Z,49.37
2022-11-22T19:24:10.797Z,50.77
2022-11-22T19:26:38.493Z,55.23
2022-11-22T19:29:05.756Z,48.70
2022-11-22T19:31:33.937Z,57.00
2022-11-22T19:34:04.347Z,49.20
2022-11-22T19:36:34.536Z,45.43
2022-11-22T19:39:05.695Z,51.53
2022-11-22T19:41:35.841Z,51.00
2022-11-22T19:44:04.074Z,48.77
2022-11-22T19:46:31.697Z,48.17
2022-11-22T19:49:01.356Z,55.60
2022-11-22T19:51:31.481Z,50.33
2022-11-22T19:54:02.966Z,54.73
2022-11-22T19:56:35.957Z,47.10
2022-11-22T19:59:05.547Z,54.57
2022-11-22T20:01:35.649Z,58.90
2022-11-22T20:04:06.146Z,48.27
2022-11-22T20:06:36.009Z,53.40
2022-11-22T20:09:11.815Z,54.93
2022-11-22T20:11:41.265Z,52.27
2022-11-22T20:14:10.110Z,51.67
2022-11-22T20:16:42.839Z,52.23
2022-11-22T20:19:12.589Z,58.30
2022-11-22T20:21:40.875Z,58.40
2022-11-22T20:24:09.462Z,54.93
2022-11-22T20:26:37.263Z,52.40
2022-11-22T20:29:11.721Z,53.67
2022-11-22T20:31:41.565Z,57.30
2022-11-22T20:34:10.124Z,58.33
2022-11-22T20:36:39.395Z,55.00
2022-11-22T20:39:10.595Z,50.03
2022-11-22T20:41:39.686Z,62.43
2022-11-22T20:44:07.653Z,61.37
2022-11-22T20:46:38.478Z,59.57
2022-11-22T20:49:09.104Z,59.60
2022-11-22T20:51:42.963Z,54.53
2022-11-22T20:54:10.807Z,55.17
2022-11-22T20:56:39.253Z,54.50
2022-11-22T20:59:07.002Z,64.63
2022-11-22T21:01:35.019Z,49.67
2022-11-22T21:04:02.612Z,55.27
2022-11-22T21:06:32.905Z,49.80
2022-11-22T21:09:00.545Z,49.60
2022-11-22T21:11:31.470Z,55.90
2022-11-22T21:13:59.254Z,59.03
2022-11-22T21:16:31.243Z,50.27
2022-11-22T21:19:05.231Z,56.93
2022-11-22T21:21:36.041Z,56.03
2022-11-22T21:24:04.848Z,55.97
2022-11-22T21:26:32.816Z,52.73
2022-11-22T21:29:00.869Z,54.67
2022-11-22T21:31:28.564Z,51.30
2022-11-22T21:33:55.865Z,48.93
2022-11-22T21:36:23.523Z,46.80
2022-11-22T21:38:53.612Z,62.77
2022-11-22T21:44:10.760Z,60.30
2022-11-22T21:46:39.042Z,54.23
2022-11-22T21:49:07.000Z,46.47
2022-11-22T21:51:34.972Z,51.60
2022-11-22T21:54:03.092Z,56.53
2022-11-22T21:56:32.846Z,52.47
2022-11-22T21:59:00.215Z,57.60
2022-11-22T22:01:28.970Z,52.83
2022-11-22T22:03:56.457Z,48.60
2022-11-22T22:06:25.656Z,49.90
2022-11-22T22:08:58.312Z,54.37
2022-11-22T22:11:26.979Z,52.00
2022-11-22T22:13:55.786Z,64.30
2022-11-22T22:16:24.149Z,60.67
2022-11-22T22:18:51.927Z,57.03
2022-11-22T22:21:19.923Z,57.00
2022-11-22T22:23:47.475Z,57.17
2022-11-22T22:26:18.019Z,57.50
2022-11-22T22:28:46.080Z,53.67
2022-11-22T22:31:23.156Z,58.53
2022-11-22T22:33:57.079Z,55.50
2022-11-22T22:36:27.692Z,59.80
2022-11-22T22:38:57.078Z,59.50
2022-11-22T22:41:24.740Z,51.47
2022-11-22T22:43:54.790Z,63.10
2022-11-22T22:46:24.979Z,58.43
2022-11-22T22:48:55.043Z,56.90
2022-11-22T22:51:31.882Z,62.00
2022-11-22T22:54:00.857Z,58.90
2022-11-22T22:56:30.676Z,54.67
2022-11-22T22:59:01.126Z,62.43
2022-11-22T23:01:30.561Z,54.60
2022-11-22T23:04:00.861Z,68.17
2022-11-22T23:06:35.480Z,65.23
2022-11-22T23:09:05.201Z,57.80
2022-11-22T23:11:52.476Z,67.43
2022-11-22T23:14:22.496Z,62.87
2022-11-22T23:16:54.518Z,61.33
2022-11-22T23:19:26.044Z,69.70
2022-11-22T23:21:54.748Z,68.00
2022-11-22T23:24:22.274Z,64.77
2022-11-22T23:26:49.763Z,53.40
2022-11-22T23:29:17.125Z,62.77
2022-11-22T23:31:44.658Z,62.80
2022-11-22T23:34:12.144Z,56.00
2022-11-22T23:36:41.200Z,63.23
2022-11-22T23:39:10.037Z,56.37
2022-11-22T23:41:37.702Z,57.87
2022-11-22T23:44:05.053Z,65.40
2022-11-22T23:46:32.664Z,51.90
2022-11-22T23:49:01.404Z,50.00
2022-11-22T23:51:30.929Z,62.80
2022-11-22T23:54:04.336Z,64.50
2022-11-22T23:56:34.595Z,56.93
2022-11-22T23:59:06.811Z,49.57
